Loretteville, Canada
Current Conditions -  °F | °C
As of 10:00 PM on Monday 20 Oct 2014 (Local Time) from CYQB Reporting Station
Broken Clouds Broken Clouds  
Wind Chill: 32°   Ceiling: 12000
Heat Index: 37°   Visibility: 15mi
Dew Point: 30°   Wind: 7mph
Humidity: 75%   Direction: 230°SW
Pressure: 29.96"   Gusts: NA
Location:  46.85°N, 71.36°W
Report Text: CYQB 210200Z 23006KT 15SM BKN120 BKN210 03/M01 A2996 RMK AC6CI1 SLP150
Loading
Personal Weather Stations






























Interactive Weather Map
Tropical Storm Tracking
New forecast layout! Learn more

10-Day Weather Forecast

Advertisements
Track Severe Weather on mobile